Pagrindinis puslapis
METAR-TAF:

METAR-TAF

Oro uostai :

Fresnas, Kalifornija, Jungtinės Amerikos Valstijos

platuma: 36-46-48N, ilguma: 119-43-10W, Aukštis: 101 m

Dabartinis oras

Ataskaita buvo paskelbta 26 minutes, ne 02:53 UTC
Ramus vėjas
Temperatūra 14°C
Drėgmė 67%
Slėgis 1020 hPa
Matomumas: 11.3 km
Giedras dangus

METAR: KFAT 300253Z 00000KT 7SM CLR 14/08 A3012 RMK AO2 SLP201 T01440078 53005

Laikas: 19:19 (03:19 UTC)

Prognozė

Ataskaita buvo paskelbta 3 valandos ir 59 minutes, ne 23:20 UTC
Prognozė galioja nuo 30 metu 00 UTC su 30 metu 24 UTC
Vėjas 3 kt nuo kintamojo kryptimis
Matomumas: 9.7 km
Giedras dangus
migla
Nuo 30 metu 1200 UTC
Vėjas 3 kt nuo kintamojo kryptimis
Matomumas: 4.8 km
Giedras dangus
rūkana
Nuo 30 metu 2000 UTC
Vėjas kt iš Šiaurės
Matomumas: 9.7 km
Giedras dangus
migla

TAF: KFAT 292320Z 3000/3024 VRB03KT 6SM HZ SKC FM301200 VRB03KT 3SM BR SKC FM302000 00000KT 6SM HZ SKC

Orai ataskaitas ir orų prognozės (METAR, TAF).

turimą stotys yra geltonos ir raudonos taškus žemėlapyje.

Perkelti pele per norėdami pamatyti stoties vardą.

Tada spustelėkite, norėdami matyti oro stebėjimo ir prognozės.

Norėdami pakeisti žemėlapį: spustelėkite ant žalios mygtukų su juodo kryžiaus žemyn,; žalią mygtuką su brūkšneliu, jei norite nutolinti; arba žalių rodyklių gretimoms žemėlapius.


METAR-TAF: